Time;durP1;ratioP1;P1;durP2;ratioP2;P2;SDS_P1;SDS_P2;PMS_P1;PMS_P2;Temp;Humidity;BMP_temperature;BMP_pressure;BME280_temperature;BME280_humidity;BME280_pressure;Samples;Min_cycle;Max_cycle;Signal;HPM_P1;HPM_P2
2023/08/22 00:01:40;;;;;;;12.02;8.13;;;;;;;16.26;100.00;101882.66;5069735;28;20036;-78
2023/08/22 00:04:06;;;;;;;11.30;9.05;;;;;;;16.33;99.96;101883.50;5074199;28;20376;-78
2023/08/22 00:06:31;;;;;;;11.95;8.52;;;;;;;16.36;99.65;101861.34;5078155;28;20032;-78
2023/08/22 00:08:57;;;;;;;14.20;9.00;;;;;;;16.41;99.81;101858.00;5074711;28;20025;-78
2023/08/22 00:11:22;;;;;;;12.63;8.55;;;;;;;16.46;99.70;101863.63;5073843;28;20047;-79
2023/08/22 00:13:47;;;;;;;10.55;8.32;;;;;;;16.46;99.16;101858.19;5073493;28;20028;-79
2023/08/22 00:16:13;;;;;;;12.60;8.55;;;;;;;16.41;99.27;101850.69;5079759;28;20032;-78
2023/08/22 00:18:38;;;;;;;10.98;8.50;;;;;;;16.42;99.66;101857.78;5071627;28;20037;-78
2023/08/22 00:21:04;;;;;;;11.35;7.82;;;;;;;16.40;100.00;101857.16;5065605;28;20051;-78
2023/08/22 00:23:29;;;;;;;11.38;8.18;;;;;;;16.44;99.46;101852.97;5073455;28;20020;-78
2023/08/22 00:25:55;;;;;;;11.05;8.18;;;;;;;16.46;99.32;101855.47;5073748;28;20055;-78
2023/08/22 00:28:20;;;;;;;13.50;8.50;;;;;;;16.45;99.65;101853.81;5072154;28;20564;-78
2023/08/22 00:30:47;;;;;;;9.32;8.32;;;;;;;16.42;100.00;101859.66;5074363;28;20044;-78
2023/08/22 00:33:12;;;;;;;13.57;8.50;;;;;;;16.39;100.00;101857.38;5075610;28;20051;-79
2023/08/22 00:35:39;;;;;;;11.15;8.90;;;;;;;16.39;100.00;101851.94;5075075;28;20059;-79
2023/08/22 00:38:04;;;;;;;14.40;8.77;;;;;;;16.37;100.00;101850.25;5075831;28;20371;-78
2023/08/22 00:40:30;;;;;;;9.73;7.85;;;;;;;16.38;100.00;101851.09;5074623;28;20565;-79
2023/08/22 00:42:55;;;;;;;12.43;9.18;;;;;;;16.35;100.00;101846.09;5076018;28;20157;-79
2023/08/22 00:45:23;;;;;;;12.18;8.95;;;;;;;16.37;100.00;101844.81;5075888;28;20032;-79
2023/08/22 00:47:49;;;;;;;12.30;8.85;;;;;;;16.34;100.00;101838.97;5075384;28;20032;-79
2023/08/22 00:50:14;;;;;;;13.30;8.82;;;;;;;16.33;100.00;101840.84;5055696;28;20024;-78
2023/08/22 00:52:39;;;;;;;12.10;9.55;;;;;;;16.35;100.00;101840.66;5075494;28;20464;-79
2023/08/22 00:55:05;;;;;;;11.55;8.75;;;;;;;16.36;100.00;101842.31;5058399;28;20162;-79
2023/08/22 00:57:32;;;;;;;12.98;8.40;;;;;;;16.43;100.00;101845.03;5074124;28;20027;-79
2023/08/22 00:59:57;;;;;;;12.25;8.95;;;;;;;16.45;100.00;101849.19;5056105;28;20028;-79
2023/08/22 01:02:29;;;;;;;11.50;9.02;;;;;;;16.42;100.00;101844.19;5062024;28;20379;-78
2023/08/22 01:04:54;;;;;;;11.13;8.70;;;;;;;16.43;100.00;101847.75;5066004;28;20020;-79
2023/08/22 01:07:36;;;;;;;13.55;9.27;;;;;;;16.41;100.00;101828.09;5066396;28;20013;-79
2023/08/22 01:10:14;;;;;;;9.05;8.23;;;;;;;16.39;100.00;101836.47;5058861;28;20032;-79
2023/08/22 01:12:47;;;;;;;10.80;7.90;;;;;;;16.42;100.00;101841.47;5036931;28;20104;-79
2023/08/22 01:15:18;;;;;;;10.48;7.95;;;;;;;16.44;100.00;101838.56;5070430;28;20051;-78
2023/08/22 01:17:43;;;;;;;11.07;8.48;;;;;;;16.42;100.00;101827.88;5070010;28;20025;-79
2023/08/22 01:20:12;;;;;;;10.70;8.35;;;;;;;16.39;100.00;101819.31;5079230;22;20081;-78
2023/08/22 01:22:39;;;;;;;10.15;8.32;;;;;;;16.37;100.00;101822.25;5095067;28;20119;-78
2023/08/22 01:25:05;;;;;;;11.07;8.32;;;;;;;16.36;100.00;101831.47;5095788;28;20028;-79
2023/08/22 01:27:32;;;;;;;12.73;8.93;;;;;;;16.33;100.00;101821.00;5092880;28;20020;-79
2023/08/22 01:30:11;;;;;;;13.77;8.57;;;;;;;16.32;100.00;101822.06;5077772;28;20042;-79
2023/08/22 01:32:41;;;;;;;15.00;9.35;;;;;;;16.26;100.00;101820.16;5054996;28;20467;-78
2023/08/22 01:35:06;;;;;;;15.15;9.57;;;;;;;16.21;100.00;101824.38;5073346;28;20020;-79
2023/08/22 01:37:32;;;;;;;13.27;9.13;;;;;;;16.18;100.00;101830.22;5092261;28;20024;-79
2023/08/22 01:39:58;;;;;;;9.55;8.55;;;;;;;16.15;100.00;101827.09;5074919;28;20031;-79
2023/08/22 01:42:25;;;;;;;12.07;8.80;;;;;;;16.12;100.00;101825.63;5073772;28;20515;-79
2023/08/22 01:44:50;;;;;;;11.25;9.13;;;;;;;16.12;100.00;101831.06;5085687;28;20032;-79
2023/08/22 01:47:15;;;;;;;11.93;9.55;;;;;;;16.13;100.00;101838.16;5088430;28;20483;-79
2023/08/22 01:49:41;;;;;;;10.45;9.15;;;;;;;16.14;100.00;101822.72;5091300;28;20020;-79
2023/08/22 01:52:06;;;;;;;12.77;9.18;;;;;;;16.14;100.00;101823.53;5090648;28;20344;-79
2023/08/22 01:54:33;;;;;;;13.18;9.07;;;;;;;16.16;100.00;101816.00;5093326;28;20028;-79
2023/08/22 01:56:59;;;;;;;11.88;9.60;;;;;;;16.14;100.00;101823.53;5090910;28;20024;-79
2023/08/22 01:59:24;;;;;;;11.77;8.60;;;;;;;16.14;100.00;101823.53;5087087;28;20039;-79
2023/08/22 02:01:49;;;;;;;9.75;8.60;;;;;;;16.12;100.00;101819.38;5089268;28;20479;-79
2023/08/22 02:04:15;;;;;;;12.85;9.15;;;;;;;16.10;100.00;101822.28;5090084;28;20020;-79
2023/08/22 02:06:40;;;;;;;11.75;9.18;;;;;;;16.05;100.00;101822.09;5090602;28;20032;-79
2023/08/22 02:09:09;;;;;;;11.90;9.35;;;;;;;15.99;100.00;101820.22;5091133;28;20012;-78
2023/08/22 02:11:35;;;;;;;11.27;9.15;;;;;;;15.90;100.00;101820.41;5091715;28;20055;-79
2023/08/22 02:14:00;;;;;;;10.70;9.15;;;;;;;15.84;100.00;101809.50;5090866;28;20032;-79
2023/08/22 02:16:26;;;;;;;10.95;9.35;;;;;;;15.76;100.00;101813.28;5092657;28;20089;-77
2023/08/22 02:18:51;;;;;;;13.35;10.05;;;;;;;15.70;100.00;101814.13;5091517;28;20050;-79
2023/08/22 02:21:17;;;;;;;14.50;10.00;;;;;;;15.67;100.00;101801.78;5092236;28;20108;-77
2023/08/22 02:23:43;;;;;;;13.32;9.57;;;;;;;15.67;100.00;101800.97;5091030;28;20412;-79
2023/08/22 02:26:09;;;;;;;12.95;9.32;;;;;;;15.67;100.00;101807.22;5088776;28;20028;-79
2023/08/22 02:28:35;;;;;;;12.00;9.43;;;;;;;15.69;100.00;101807.03;5085049;28;20492;-79
2023/08/22 02:31:02;;;;;;;11.98;9.43;;;;;;;15.74;100.00;101809.94;5091999;28;20357;-79
2023/08/22 02:33:27;;;;;;;10.80;9.75;;;;;;;15.79;100.00;101809.31;5073193;28;20484;-79
2023/08/22 02:35:52;;;;;;;10.68;9.20;;;;;;;15.81;100.00;101813.50;5089807;28;20022;-78
2023/08/22 02:38:19;;;;;;;11.25;10.05;;;;;;;15.80;100.00;101806.38;5090414;28;20024;-77
2023/08/22 02:40:45;;;;;;;14.05;9.88;;;;;;;15.83;100.00;101796.97;5090364;28;20480;-79
2023/08/22 02:43:10;;;;;;;11.98;10.38;;;;;;;15.82;100.00;101801.59;5095353;28;20030;-78
2023/08/22 02:45:35;;;;;;;11.70;10.10;;;;;;;15.83;100.00;101800.53;5090891;28;20372;-79
2023/08/22 02:48:02;;;;;;;11.25;9.77;;;;;;;15.90;100.00;101806.81;5090253;28;20632;-79
2023/08/22 02:50:28;;;;;;;12.48;9.70;;;;;;;15.88;100.00;101795.38;5074075;28;20403;-78
2023/08/22 02:52:53;;;;;;;9.95;8.95;;;;;;;15.90;100.00;101792.44;5093012;28;20084;-78
2023/08/22 02:55:19;;;;;;;11.13;9.82;;;;;;;15.89;100.00;101796.19;5091373;28;20028;-78
2023/08/22 02:57:45;;;;;;;11.77;9.60;;;;;;;15.88;100.00;101797.22;5092255;28;20077;-79
2023/08/22 03:00:11;;;;;;;15.70;9.23;;;;;;;15.84;100.00;101790.50;5092358;28;20031;-79
2023/08/22 03:02:37;;;;;;;11.27;9.65;;;;;;;15.82;100.00;101788.00;5089664;28;20459;-78
2023/08/22 03:05:06;;;;;;;12.27;9.60;;;;;;;15.80;100.00;101792.81;5080551;28;20052;-78
2023/08/22 03:07:32;;;;;;;11.38;9.15;;;;;;;15.80;100.00;101790.09;5091548;28;20024;-79
2023/08/22 03:10:21;;;;;;;13.90;9.73;;;;;;;15.78;100.00;101781.31;5098907;28;20036;-78
2023/08/22 03:12:49;;;;;;;9.93;8.88;;;;;;;15.79;100.00;101776.75;5103578;28;20061;-78
2023/08/22 03:15:14;;;;;;;11.77;9.40;;;;;;;15.75;100.00;101779.88;5098377;28;20031;-79
2023/08/22 03:17:44;;;;;;;11.40;9.32;;;;;;;15.74;100.00;101785.50;5092500;28;20028;-78
2023/08/22 03:20:12;;;;;;;12.18;9.52;;;;;;;15.72;100.00;101779.44;5088331;28;20427;-78
2023/08/22 03:22:37;;;;;;;10.68;9.30;;;;;;;15.71;100.00;101778.63;5091642;28;20426;-78
2023/08/22 03:25:03;;;;;;;11.55;10.45;;;;;;;15.67;100.00;101779.25;5090098;28;20031;-78
2023/08/22 03:27:29;;;;;;;13.27;10.07;;;;;;;15.67;100.00;101782.78;5089801;28;20061;-79
2023/08/22 03:29:54;;;;;;;11.35;10.18;;;;;;;15.66;100.00;101777.56;5088823;28;20159;-79
2023/08/22 03:32:22;;;;;;;12.82;9.65;;;;;;;15.66;100.00;101789.25;5091913;28;20028;-78
2023/08/22 03:34:47;;;;;;;13.38;10.38;;;;;;;15.68;100.00;101792.59;5086705;28;20020;-79
2023/08/22 03:37:13;;;;;;;11.45;9.93;;;;;;;15.73;100.00;101781.09;5091035;28;20103;-78
2023/08/22 03:39:38;;;;;;;11.60;8.88;;;;;;;15.68;100.00;101776.31;5091606;28;20038;-78
2023/08/22 03:42:04;;;;;;;11.07;9.90;;;;;;;15.66;100.00;101778.41;5090758;28;20028;-78
2023/08/22 03:44:30;;;;;;;12.00;9.88;;;;;;;15.60;100.00;101773.81;5090698;28;20379;-78
2023/08/22 03:46:58;;;;;;;10.95;9.85;;;;;;;15.54;100.00;101772.75;5091163;28;20067;-78
2023/08/22 03:49:24;;;;;;;13.13;10.27;;;;;;;15.47;100.00;101774.63;5086988;28;20031;-79
2023/08/22 03:51:49;;;;;;;13.13;11.20;;;;;;;15.40;100.00;101781.91;5089785;28;20543;-79
2023/08/22 03:54:17;;;;;;;13.10;11.07;;;;;;;15.33;100.00;101781.91;5086724;28;20028;-79
2023/08/22 03:56:43;;;;;;;13.70;10.90;;;;;;;15.29;100.00;101776.06;5090363;28;20483;-78
2023/08/22 03:59:08;;;;;;;12.00;10.80;;;;;;;15.26;100.00;101783.78;5090322;28;20024;-78
2023/08/22 04:01:34;;;;;;;14.32;10.80;;;;;;;15.20;100.00;101773.75;5091391;28;20673;-78
2023/08/22 04:04:00;;;;;;;11.32;9.90;;;;;;;15.16;100.00;101776.03;5071775;28;20032;-78
2023/08/22 04:06:25;;;;;;;10.35;9.27;;;;;;;15.09;100.00;101773.28;5082901;28;20395;-79
2023/08/22 04:08:53;;;;;;;10.55;9.48;;;;;;;15.03;100.00;101771.41;5091793;28;20043;-85
2023/08/22 04:11:19;;;;;;;13.68;10.38;;;;;;;14.98;100.00;101772.03;5089711;28;20028;-80
2023/08/22 04:13:45;;;;;;;12.57;11.15;;;;;;;14.96;100.00;101773.25;5090808;28;20051;-80
2023/08/22 04:16:10;;;;;;;11.98;10.73;;;;;;;14.92;100.00;101774.69;5091010;28;20464;-87
2023/08/22 04:18:37;;;;;;;15.70;11.93;;;;;;;14.85;100.00;101766.53;5086592;28;20028;-77
2023/08/22 04:21:03;;;;;;;13.38;11.75;;;;;;;14.81;100.00;101770.72;5086796;28;20040;-77
2023/08/22 04:23:28;;;;;;;15.55;10.60;;;;;;;14.73;100.00;101779.03;5083583;28;20023;-78
2023/08/22 04:25:54;;;;;;;15.18;12.05;;;;;;;14.69;100.00;101778.59;5088453;28;20028;-78
2023/08/22 04:28:20;;;;;;;16.63;13.35;;;;;;;14.68;100.00;101782.34;5089385;28;20085;-77
2023/08/22 04:30:45;;;;;;;16.70;12.23;;;;;;;14.63;100.00;101785.63;5090660;28;20076;-78
2023/08/22 04:33:11;;;;;;;16.27;12.10;;;;;;;14.61;100.00;101785.00;5089533;28;20464;-78
2023/08/22 04:35:37;;;;;;;13.55;11.45;;;;;;;14.62;100.00;101778.53;5082971;28;20028;-78
2023/08/22 04:38:03;;;;;;;13.80;12.30;;;;;;;14.63;100.00;101774.78;5091413;28;20430;-78
2023/08/22 04:40:28;;;;;;;14.25;11.05;;;;;;;14.60;100.00;101780.59;5089120;28;20468;-78
2023/08/22 04:42:54;;;;;;;14.75;11.80;;;;;;;14.57;100.00;101778.28;5090195;28;20032;-77
2023/08/22 04:45:19;;;;;;;14.13;11.40;;;;;;;14.56;100.00;101771.19;5091086;28;20110;-78
2023/08/22 04:47:45;;;;;;;11.95;10.65;;;;;;;14.52;100.00;101778.91;5089328;28;20036;-77
2023/08/22 04:50:10;;;;;;;12.70;10.35;;;;;;;14.51;100.00;101773.66;5082906;28;20375;-77
2023/08/22 04:52:36;;;;;;;12.80;11.48;;;;;;;14.51;100.00;101770.97;5090215;28;20042;-77
2023/08/22 04:55:01;;;;;;;12.70;10.50;;;;;;;14.55;100.00;101773.09;5089427;28;20027;-77
2023/08/22 04:57:26;;;;;;;11.73;10.35;;;;;;;14.65;100.00;101771.88;5083476;28;20033;-77
2023/08/22 04:59:53;;;;;;;12.02;10.55;;;;;;;14.71;100.00;101773.81;5089534;28;20032;-77
2023/08/22 05:02:24;;;;;;;12.25;9.80;;;;;;;14.74;100.00;101780.69;5089913;28;20036;-77
2023/08/22 05:04:50;;;;;;;10.40;9.30;;;;;;;14.78;100.00;101776.53;5089050;28;20081;-78
2023/08/22 05:07:15;;;;;;;12.57;9.93;;;;;;;14.84;100.00;101779.28;5090684;28;20360;-78
2023/08/22 05:09:40;;;;;;;13.48;10.05;;;;;;;14.89;100.00;101772.41;5090932;28;20548;-78
2023/08/22 05:12:09;;;;;;;11.45;9.65;;;;;;;14.99;100.00;101772.84;5093813;28;20032;-77
2023/08/22 05:14:37;;;;;;;11.25;9.32;;;;;;;15.03;100.00;101774.13;5093844;28;20047;-78
2023/08/22 05:17:03;;;;;;;11.40;10.18;;;;;;;15.17;100.00;101780.44;5093929;28;20020;-78
2023/08/22 05:19:34;;;;;;;11.52;10.02;;;;;;;15.33;100.00;101786.50;5091909;28;20395;-77
2023/08/22 05:22:00;;;;;;;13.10;10.45;;;;;;;15.41;100.00;101791.72;5093832;28;20030;-78
2023/08/22 05:24:25;;;;;;;13.30;11.05;;;;;;;15.46;100.00;101794.66;5094195;28;20446;-78
2023/08/22 05:26:50;;;;;;;13.38;10.38;;;;;;;15.50;100.00;101790.50;5093540;28;20028;-78
2023/08/22 05:29:19;;;;;;;12.27;10.10;;;;;;;15.54;100.00;101799.06;5092913;28;20024;-78
2023/08/22 05:31:44;;;;;;;12.07;10.02;;;;;;;15.57;100.00;101795.94;5094176;28;20035;-78
2023/08/22 05:34:09;;;;;;;12.13;10.68;;;;;;;15.61;100.00;101798.03;5087192;28;20025;-77
2023/08/22 05:36:35;;;;;;;13.70;10.48;;;;;;;15.69;100.00;101801.59;5093817;28;20024;-78
2023/08/22 05:39:00;;;;;;;11.48;10.27;;;;;;;15.72;100.00;101804.72;5093644;28;20027;-78
2023/08/22 05:41:26;;;;;;;11.85;9.90;;;;;;;15.79;100.00;101804.72;5092896;28;20019;-78
2023/08/22 05:43:52;;;;;;;12.25;10.70;;;;;;;15.89;100.00;101802.44;5093253;28;20087;-78
2023/08/22 05:46:17;;;;;;;11.32;10.13;;;;;;;16.11;100.00;101801.41;5093921;28;20385;-78
2023/08/22 05:48:43;;;;;;;13.57;10.38;;;;;;;16.43;100.00;101809.69;5093007;28;20028;-77
2023/08/22 05:51:08;;;;;;;12.80;9.95;;;;;;;16.70;100.00;101798.72;5092503;28;20475;-77
2023/08/22 05:53:33;;;;;;;14.80;10.20;;;;;;;16.94;100.00;101802.63;5093938;28;20510;-77
2023/08/22 05:55:59;;;;;;;13.48;10.90;;;;;;;17.15;100.00;101811.53;5092556;28;20036;-78
2023/08/22 05:58:24;;;;;;;13.40;11.32;;;;;;;17.26;99.95;101810.88;5093554;28;20035;-78
2023/08/22 06:00:50;;;;;;;13.63;11.50;;;;;;;17.40;99.20;101811.59;5094342;28;20417;-77
2023/08/22 06:03:17;;;;;;;14.68;10.85;;;;;;;17.79;97.37;101806.09;5092922;28;20028;-78
2023/08/22 06:05:44;;;;;;;11.27;10.00;;;;;;;18.40;92.58;101788.16;5091776;28;20028;-78
2023/08/22 06:08:09;;;;;;;15.65;10.40;;;;;;;18.78;90.31;101805.34;5092624;28;20062;-78
2023/08/22 06:10:34;;;;;;;12.98;10.82;;;;;;;19.36;86.68;101794.94;5092522;28;20012;-78
2023/08/22 06:13:00;;;;;;;11.68;9.98;;;;;;;19.76;84.33;101798.94;5092207;28;20059;-77
2023/08/22 06:15:25;;;;;;;14.30;10.65;;;;;;;19.61;84.48;101799.38;5093472;28;20020;-78
2023/08/22 06:17:51;;;;;;;12.60;11.18;;;;;;;19.71;84.89;101807.84;5091896;28;20028;-78
2023/08/22 06:20:16;;;;;;;17.80;10.93;;;;;;;20.31;81.46;101805.97;5089574;28;20051;-78
2023/08/22 06:22:44;;;;;;;12.50;11.20;;;;;;;20.29;80.57;101814.41;5092794;28;20028;-78
2023/08/22 06:25:10;;;;;;;15.07;11.05;;;;;;;20.18;80.91;101807.06;5091779;28;20032;-78
2023/08/22 06:27:35;;;;;;;15.95;11.00;;;;;;;20.39;81.00;101804.75;5092619;28;20361;-76
2023/08/22 06:30:01;;;;;;;11.13;9.90;;;;;;;20.74;79.45;101812.91;5093678;28;20047;-76
2023/08/22 06:32:27;;;;;;;13.82;9.68;;;;;;;21.26;75.83;101824.91;5090808;28;20036;-76
2023/08/22 06:34:52;;;;;;;12.20;8.75;;;;;;;22.83;70.82;101829.81;5093296;28;20024;-76
2023/08/22 06:37:19;;;;;;;8.75;6.75;;;;;;;24.74;63.41;101822.31;5094678;28;20484;-77
2023/08/22 06:39:44;;;;;;;12.15;7.57;;;;;;;25.33;59.50;101823.03;5094893;28;20016;-78
2023/08/22 06:42:09;;;;;;;8.55;7.50;;;;;;;24.91;59.82;101809.16;5102091;28;20037;-75
2023/08/22 06:44:38;;;;;;;10.60;8.00;;;;;;;24.27;61.46;101813.00;5109905;28;20024;-78
2023/08/22 06:47:03;;;;;;;11.00;8.05;;;;;;;24.05;64.07;101816.72;5095976;28;20028;-76
2023/08/22 06:49:28;;;;;;;11.32;7.22;;;;;;;25.44;59.73;101808.19;5093475;28;20126;-76
2023/08/22 06:51:54;;;;;;;11.05;8.77;;;;;;;25.65;57.83;101810.94;5095279;28;20032;-76
2023/08/22 06:54:23;;;;;;;10.15;8.30;;;;;;;25.95;57.22;101818.38;5092537;28;20040;-76
2023/08/22 06:56:48;;;;;;;10.98;7.30;;;;;;;27.32;52.71;101822.00;5084755;28;20032;-76
2023/08/22 06:59:13;;;;;;;9.07;6.70;;;;;;;28.23;49.37;101817.09;5092595;28;20020;-76
2023/08/22 07:01:39;;;;;;;9.60;6.93;;;;;;;29.54;45.15;101815.06;5091261;28;20039;-76
2023/08/22 07:04:04;;;;;;;12.27;7.38;;;;;;;29.16;45.91;101818.69;5091303;28;20040;-76
2023/08/22 07:06:30;;;;;;;11.23;7.93;;;;;;;27.80;48.75;101821.34;5092355;28;20036;-76
2023/08/22 07:08:55;;;;;;;6.53;5.50;;;;;;;27.95;49.42;101822.34;5090150;28;20035;-76
2023/08/22 07:11:21;;;;;;;9.27;6.07;;;;;;;29.89;44.20;101826.66;5091495;28;20028;-76
2023/08/22 07:13:47;;;;;;;6.60;5.60;;;;;;;30.81;41.64;101821.25;5083615;28;20034;-77
2023/08/22 07:16:12;;;;;;;8.55;5.60;;;;;;;31.64;39.62;101835.19;5091939;28;20036;-77
2023/08/22 07:18:37;;;;;;;11.57;6.65;;;;;;;30.09;42.05;101831.06;5091436;28;20027;-77
2023/08/22 07:21:04;;;;;;;7.68;6.75;;;;;;;28.44;47.01;101829.59;5091119;28;20043;-77
2023/08/22 07:23:31;;;;;;;8.38;6.78;;;;;;;28.59;47.40;101836.88;5092052;28;20040;-77
2023/08/22 07:25:57;;;;;;;12.07;7.10;;;;;;;26.93;50.33;101831.09;5090813;28;20032;-76
2023/08/22 07:28:22;;;;;;;11.13;7.85;;;;;;;25.37;57.02;101824.97;5091145;28;20077;-77
2023/08/22 07:30:51;;;;;;;12.07;7.18;;;;;;;25.05;58.28;101826.00;5091412;28;20032;-77
2023/08/22 07:33:16;;;;;;;11.35;7.95;;;;;;;24.06;61.89;101827.44;5089476;28;20083;-77
2023/08/22 07:35:42;;;;;;;13.90;8.65;;;;;;;23.45;64.01;101841.50;5090136;28;20368;-77
2023/08/22 07:38:08;;;;;;;12.48;8.07;;;;;;;22.96;65.94;101823.94;5091704;28;20491;-77
2023/08/22 07:40:39;;;;;;;9.88;8.15;;;;;;;23.26;64.90;101825.38;5091293;28;20453;-77
2023/08/22 07:43:05;;;;;;;11.00;7.82;;;;;;;23.01;66.00;101823.16;5083739;28;20027;-77
2023/08/22 07:45:30;;;;;;;7.78;6.50;;;;;;;23.58;63.33;101826.50;5091741;28;20032;-77
2023/08/22 07:47:56;;;;;;;9.65;7.93;;;;;;;23.47;64.22;101834.63;5090987;28;20057;-77
2023/08/22 07:50:21;;;;;;;11.90;7.70;;;;;;;23.22;64.83;101832.47;5088847;28;20016;-77
2023/08/22 07:52:46;;;;;;;8.73;6.95;;;;;;;23.21;65.19;101839.03;5091155;28;20078;-77
2023/08/22 07:55:12;;;;;;;9.50;7.22;;;;;;;23.29;64.25;101846.03;5090688;28;20405;-77
2023/08/22 07:57:37;;;;;;;10.48;6.97;;;;;;;23.50;63.04;101849.78;5090635;28;20039;-77
2023/08/22 08:00:08;;;;;;;8.43;6.28;;;;;;;23.43;62.38;101852.75;5091502;28;20032;-77
2023/08/22 08:02:34;;;;;;;7.22;5.70;;;;;;;23.84;61.75;101844.03;5089576;28;20522;-76
2023/08/22 08:04:59;;;;;;;8.00;5.72;;;;;;;25.03;57.22;101841.97;5088731;28;20028;-77
2023/08/22 08:07:25;;;;;;;7.18;4.28;;;;;;;27.18;50.84;101851.41;5091487;28;20031;-77
2023/08/22 08:09:50;;;;;;;6.82;4.40;;;;;;;27.32;48.58;101848.81;5090538;28;20375;-77
2023/08/22 08:12:15;;;;;;;8.15;3.65;;;;;;;27.00;47.24;101853.72;5070936;28;20054;-77
2023/08/22 08:14:41;;;;;;;5.38;3.60;;;;;;;27.77;45.19;101855.16;5090116;28;20032;-77
2023/08/22 08:17:06;;;;;;;7.28;3.65;;;;;;;27.92;44.44;101859.69;5091007;28;20035;-77
2023/08/22 08:19:32;;;;;;;4.90;2.85;;;;;;;29.04;41.43;101846.84;5090064;28;20044;-77
2023/08/22 08:21:57;;;;;;;3.72;2.90;;;;;;;29.30;41.50;101854.81;5083634;28;20036;-77
2023/08/22 08:24:23;;;;;;;6.18;2.85;;;;;;;28.65;41.77;101851.50;5090365;28;20399;-77
2023/08/22 08:26:48;;;;;;;7.85;3.15;;;;;;;27.90;43.65;101850.88;5090756;28;20016;-77
2023/08/22 08:29:13;;;;;;;5.32;2.40;;;;;;;27.76;42.99;101852.66;5091525;28;20484;-77
2023/08/22 08:31:39;;;;;;;6.75;2.78;;;;;;;26.77;45.00;101844.94;5089826;28;20028;-77
2023/08/22 08:34:04;;;;;;;4.57;2.30;;;;;;;27.11;45.04;101853.66;5082196;28;20024;-77
2023/08/22 08:36:29;;;;;;;5.20;2.45;;;;;;;27.03;45.79;101864.19;5091930;28;20024;-77
2023/08/22 08:38:55;;;;;;;4.93;2.40;;;;;;;26.86;44.62;101853.50;5089833;28;20038;-77
2023/08/22 08:41:21;;;;;;;4.88;2.20;;;;;;;26.43;45.01;101853.91;5090829;28;20023;-77
2023/08/22 08:43:46;;;;;;;3.85;2.10;;;;;;;25.81;46.78;101853.97;5091788;28;20020;-77
2023/08/22 08:46:12;;;;;;;6.40;2.40;;;;;;;25.70;47.81;101855.06;5094106;28;20085;-77
2023/08/22 08:48:38;;;;;;;3.97;2.20;;;;;;;25.55;49.00;101853.97;5089961;28;20118;-77
2023/08/22 08:51:04;;;;;;;4.45;2.40;;;;;;;25.90;48.31;101856.19;5058221;28;20389;-77
2023/08/22 08:53:29;;;;;;;4.10;2.33;;;;;;;26.02;47.45;101856.72;5094111;28;20044;-77
2023/08/22 08:55:55;;;;;;;4.82;2.38;;;;;;;25.61;47.67;101864.97;5076686;28;20058;-77
2023/08/22 08:58:23;;;;;;;8.02;2.78;;;;;;;25.63;48.86;101865.53;5095575;28;20031;-77
2023/08/22 09:00:49;;;;;;;5.13;3.10;;;;;;;25.25;49.81;101869.31;5087922;28;20123;-77
2023/08/22 09:03:15;;;;;;;5.57;3.00;;;;;;;24.80;50.93;101855.09;5075005;28;20032;-77
2023/08/22 09:05:40;;;;;;;5.30;2.90;;;;;;;24.61;51.84;101857.47;5078968;28;20368;-77
2023/08/22 09:08:16;;;;;;;13.43;3.58;;;;;;;24.59;52.64;101854.16;5094873;28;20024;-77
2023/08/22 09:10:41;;;;;;;8.32;3.10;;;;;;;24.64;52.42;101851.44;5090454;28;20020;-76
2023/08/22 09:13:07;;;;;;;5.55;3.15;;;;;;;24.82;53.28;101863.94;5097793;28;20069;-77
2023/08/22 09:15:33;;;;;;;9.20;3.42;;;;;;;24.81;52.40;101861.47;5102788;28;20376;-76
2023/08/22 09:17:59;;;;;;;5.53;2.83;;;;;;;25.03;52.32;101868.72;5116021;22;20273;-76
2023/08/22 09:20:25;;;;;;;4.47;2.60;;;;;;;24.91;52.42;101861.50;5108901;28;20035;-76
2023/08/22 09:22:50;;;;;;;6.60;2.90;;;;;;;24.31;54.30;101869.16;5084219;28;20017;-76
2023/08/22 09:25:16;;;;;;;7.43;2.70;;;;;;;24.60;54.02;101864.09;5082872;28;20025;-77
2023/08/22 09:27:41;;;;;;;6.32;2.90;;;;;;;24.55;54.33;101863.25;5074467;28;20032;-77
2023/08/22 09:30:11;;;;;;;8.00;3.10;;;;;;;24.65;53.22;101875.13;5082224;28;20024;-76
2023/08/22 09:32:36;;;;;;;6.93;2.90;;;;;;;25.48;51.53;101864.44;5076957;28;20089;-76
2023/08/22 09:35:02;;;;;;;5.30;3.05;;;;;;;25.60;50.98;101868.84;5093561;28;20024;-76
2023/08/22 09:37:35;;;;;;;5.13;3.17;;;;;;;25.90;50.31;101864.47;5091713;28;20345;-76
2023/08/22 09:40:03;;;;;;;5.65;3.40;;;;;;;25.83;50.87;101862.78;5078831;28;20028;-77
2023/08/22 09:42:29;;;;;;;8.98;3.28;;;;;;;25.55;52.41;101858.63;5091879;28;20124;-77
2023/08/22 09:44:57;;;;;;;13.52;3.88;;;;;;;25.49;50.07;101868.84;5085695;28;20056;-76
2023/08/22 09:47:28;;;;;;;8.32;3.90;;;;;;;25.86;50.21;101859.50;5091268;28;20036;-77
2023/08/22 09:49:56;;;;;;;9.65;3.55;;;;;;;25.97;49.19;101851.19;5081541;28;20036;-77
2023/08/22 09:52:22;;;;;;;6.20;3.25;;;;;;;26.48;49.27;101861.34;5090671;28;20034;-77
2023/08/22 09:54:47;;;;;;;6.25;3.10;;;;;;;26.65;47.90;101858.28;5042211;28;20041;-77
2023/08/22 09:57:13;;;;;;;6.47;2.72;;;;;;;28.09;45.09;101867.59;5045751;28;20111;-76
2023/08/22 09:59:38;;;;;;;4.50;2.83;;;;;;;27.96;45.01;101869.09;5084711;28;20483;-76
2023/08/22 10:02:05;;;;;;;5.85;2.88;;;;;;;28.86;43.41;101863.16;5066510;28;20088;-78
2023/08/22 10:04:30;;;;;;;5.88;3.42;;;;;;;29.35;42.97;101876.94;5076308;28;20020;-78
2023/08/22 10:06:58;;;;;;;6.05;3.40;;;;;;;29.87;42.09;101884.44;5080850;28;20027;-78
2023/08/22 10:09:26;;;;;;;8.75;5.20;;;;;;;29.73;40.30;101878.84;5077697;28;20029;-78
2023/08/22 10:11:56;;;;;;;7.07;4.80;;;;;;;30.48;39.69;101876.13;5053763;28;20448;-78
2023/08/22 10:14:39;;;;;;;5.53;4.18;;;;;;;29.54;41.13;101882.47;5081797;28;20059;-77
2023/08/22 10:17:13;;;;;;;10.15;6.00;;;;;;;29.49;40.12;101875.03;5061937;28;20067;-78
2023/08/22 10:19:38;;;;;;;8.93;6.25;;;;;;;29.20;40.51;101866.88;5064753;28;20074;-78
2023/08/22 10:22:10;;;;;;;9.35;6.32;;;;;;;28.55;41.45;101866.31;5081447;28;20028;-78
2023/08/22 10:24:35;;;;;;;10.48;6.03;;;;;;;28.09;42.94;101866.75;5074475;28;20027;-78
2023/08/22 10:27:09;;;;;;;8.40;6.10;;;;;;;27.96;43.31;101869.09;5081277;28;20029;-78
2023/08/22 10:29:47;;;;;;;10.07;6.38;;;;;;;27.81;43.75;101866.47;5081426;28;20533;-78
2023/08/22 10:32:19;;;;;;;8.75;6.30;;;;;;;27.68;43.65;101859.63;5083618;28;20543;-78
2023/08/22 10:34:44;;;;;;;10.77;6.38;;;;;;;27.80;44.11;101856.50;5076249;28;20060;-78
2023/08/22 10:37:25;;;;;;;10.97;5.33;;;;;;;27.66;44.76;101871.00;5080679;28;20047;-77
2023/08/22 10:39:50;;;;;;;12.43;6.57;;;;;;;27.50;44.52;101863.94;5072037;28;20373;-78
2023/08/22 10:42:17;;;;;;;13.30;5.80;;;;;;;28.62;42.77;101867.88;5076338;28;20061;-78
2023/08/22 10:44:42;;;;;;;13.38;5.93;;;;;;;28.86;42.17;101856.78;5092627;28;20510;-78
2023/08/22 10:47:18;;;;;;;8.70;5.63;;;;;;;29.57;40.07;101864.41;5072334;28;20037;-78
2023/08/22 10:49:48;;;;;;;5.65;4.40;;;;;;;31.92;36.22;101872.09;5088909;28;20073;-78
2023/08/22 10:52:13;;;;;;;6.78;5.10;;;;;;;32.68;34.58;101861.91;5065453;28;20503;-78
2023/08/22 10:55:08;;;;;;;8.45;5.57;;;;;;;32.81;34.38;101860.16;5085229;28;20044;-78
2023/08/22 10:57:36;;;;;;;10.68;6.18;;;;;;;31.20;36.88;101851.56;5071151;28;20113;-77
2023/08/22 11:00:22;;;;;;;9.65;5.97;;;;;;;29.74;39.79;101853.56;5091479;28;20047;-77
2023/08/22 11:02:56;;;;;;;8.80;7.10;;;;;;;28.79;42.24;101862.69;5074419;28;20062;-78
2023/08/22 11:05:21;;;;;;;10.18;7.00;;;;;;;29.24;41.25;101861.53;5073464;28;20028;-77
2023/08/22 11:07:48;;;;;;;8.55;6.28;;;;;;;29.90;40.79;101861.63;5071431;28;20119;-78
2023/08/22 11:10:18;;;;;;;10.13;6.40;;;;;;;29.38;41.55;101862.47;5071024;28;20086;-77
2023/08/22 11:12:43;;;;;;;11.40;6.47;;;;;;;30.17;40.12;101858.09;5068615;28;20024;-77